createdAt,value
2018-12-02T00:00:19.362Z,1004.66
2018-12-02T00:01:19.368Z,1004.65
2018-12-02T00:02:19.370Z,1004.57
2018-12-02T00:03:19.347Z,1004.55
2018-12-02T00:04:19.385Z,1004.55
2018-12-02T00:05:26.770Z,1004.46
2018-12-02T00:06:28.231Z,1004.43
2018-12-02T00:07:19.495Z,1004.48
2018-12-02T00:08:19.330Z,1004.40
2018-12-02T00:09:20.286Z,1004.40
2018-12-02T00:10:19.324Z,1004.45
2018-12-02T00:11:19.229Z,1004.31
2018-12-02T00:12:19.236Z,1004.32
2018-12-02T00:13:19.311Z,1004.26
2018-12-02T00:14:19.275Z,1004.29
2018-12-02T00:15:19.244Z,1004.27
2018-12-02T00:16:19.270Z,1004.26
2018-12-02T00:17:19.196Z,1004.35
2018-12-02T00:18:19.374Z,1004.28
2018-12-02T00:19:19.211Z,1004.25
2018-12-02T00:20:19.189Z,1004.24
2018-12-02T00:21:19.790Z,1004.24
2018-12-02T00:22:19.198Z,1004.24
2018-12-02T00:23:19.132Z,1004.27
2018-12-02T00:24:19.128Z,1004.22
2018-12-02T00:25:19.195Z,1004.25
2018-12-02T00:26:19.225Z,1004.15
2018-12-02T00:27:19.700Z,1004.24
2018-12-02T00:28:19.096Z,1004.22
2018-12-02T00:29:19.128Z,1004.26
2018-12-02T00:30:19.103Z,1004.18
2018-12-02T00:31:19.078Z,1004.11
2018-12-02T00:32:19.842Z,1004.17
2018-12-02T00:33:19.040Z,1004.16
2018-12-02T00:34:19.037Z,1004.07
2018-12-02T00:35:19.757Z,1004.15
2018-12-02T00:36:19.008Z,1004.12
2018-12-02T00:37:19.054Z,1004.21
2018-12-02T00:38:19.000Z,1004.12
2018-12-02T00:39:19.040Z,1004.14
2018-12-02T00:40:19.039Z,1004.20
2018-12-02T00:41:19.755Z,1004.12
2018-12-02T00:42:18.938Z,1004.15
2018-12-02T00:43:18.946Z,1004.18
2018-12-02T00:44:18.922Z,1004.13
2018-12-02T00:45:18.963Z,1004.12
2018-12-02T00:46:18.889Z,1004.10
2018-12-02T00:47:18.879Z,1004.14
2018-12-02T00:48:18.884Z,1004.14
2018-12-02T00:49:18.877Z,1004.15
2018-12-02T00:50:19.275Z,1004.07
2018-12-02T00:51:19.730Z,1004.12
2018-12-02T00:52:18.872Z,1004.10
2018-12-02T00:53:18.849Z,1004.08
2018-12-02T00:54:18.796Z,1004.14
2018-12-02T00:55:18.869Z,1004.05
2018-12-02T00:56:19.831Z,1003.98
2018-12-02T00:57:18.757Z,1004.06
2018-12-02T00:58:18.760Z,1004.12
2018-12-02T00:59:18.734Z,1004.08
2018-12-02T01:00:18.752Z,1004.04
2018-12-02T01:01:18.703Z,1004.09
2018-12-02T01:02:20.221Z,1004.04
2018-12-02T01:03:18.741Z,1004.03
2018-12-02T01:04:19.777Z,1003.98
2018-12-02T01:05:18.710Z,1004.02
2018-12-02T01:06:18.690Z,1004.00
2018-12-02T01:07:18.721Z,1003.96
2018-12-02T01:08:18.724Z,1003.99
2018-12-02T01:09:18.661Z,1003.90
2018-12-02T01:10:18.714Z,1003.96
2018-12-02T01:11:18.639Z,1003.93
2018-12-02T01:12:18.747Z,1003.93
2018-12-02T01:13:20.703Z,1003.97
2018-12-02T01:14:19.794Z,1003.91
2018-12-02T01:15:18.636Z,1003.96
2018-12-02T01:16:18.584Z,1003.98
2018-12-02T01:17:18.554Z,1003.94
2018-12-02T01:18:18.558Z,1003.92
2018-12-02T01:19:18.534Z,1003.93
2018-12-02T01:20:18.594Z,1003.89
2018-12-02T01:21:18.514Z,1003.93
2018-12-02T01:22:18.486Z,1003.94
2018-12-02T01:23:18.500Z,1003.91
2018-12-02T01:24:18.482Z,1003.86
2018-12-02T01:25:18.754Z,1003.85
2018-12-02T01:26:18.450Z,1003.81
2018-12-02T01:27:18.491Z,1003.84
2018-12-02T01:28:18.445Z,1003.81
2018-12-02T01:29:18.393Z,1003.80
2018-12-02T01:30:18.467Z,1003.72
2018-12-02T01:31:23.284Z,1003.81
2018-12-02T01:32:20.235Z,1003.81
2018-12-02T01:33:18.419Z,1003.84
2018-12-02T01:34:18.364Z,1003.76
2018-12-02T01:35:18.378Z,1003.74
2018-12-02T01:36:18.416Z,1003.74
2018-12-02T01:37:19.316Z,1003.72
2018-12-02T01:38:18.356Z,1003.70
2018-12-02T01:39:18.334Z,1003.66
2018-12-02T01:40:18.364Z,1003.67
2018-12-02T01:41:27.447Z,1003.66
2018-12-02T01:42:18.406Z,1003.58
2018-12-02T01:43:18.731Z,1003.58
2018-12-02T01:44:20.406Z,1003.56
2018-12-02T01:45:18.443Z,1003.59
2018-12-02T01:46:18.320Z,1003.58
2018-12-02T01:47:27.496Z,1003.50
2018-12-02T01:48:26.385Z,1003.53
2018-12-02T01:49:25.944Z,1003.50
2018-12-02T01:50:26.331Z,1003.48
2018-12-02T01:51:26.393Z,1003.49
2018-12-02T01:54:45.452Z,1003.37
2018-12-02T01:55:45.749Z,1003.36
2018-12-02T01:56:45.426Z,1003.44
2018-12-02T01:57:56.325Z,1003.39
2018-12-02T01:58:45.562Z,1003.38
2018-12-02T01:59:45.407Z,1003.29
2018-12-02T02:00:45.667Z,1003.34
2018-12-02T02:01:54.322Z,1003.27
2018-12-02T02:02:45.492Z,1003.19
2018-12-02T02:03:53.443Z,1003.21
2018-12-02T02:04:55.476Z,1003.12
2018-12-02T02:05:53.626Z,1003.16
2018-12-02T02:06:53.916Z,1003.15
2018-12-02T02:07:53.379Z,1003.11
2018-12-02T02:11:13.954Z,1003.03
2018-12-02T02:12:13.645Z,1003.02
2018-12-02T02:13:23.454Z,1002.99
2018-12-02T02:15:25.247Z,1002.99
2018-12-02T02:16:32.390Z,1002.96
2018-12-02T02:17:33.100Z,1002.88
2018-12-02T02:18:34.069Z,1002.92
2018-12-02T02:19:34.140Z,1002.87
2018-12-02T02:20:25.329Z,1002.90
2018-12-02T02:21:25.253Z,1002.89
2018-12-02T02:22:25.056Z,1002.89
2018-12-02T02:23:25.116Z,1002.85
2018-12-02T02:24:25.097Z,1002.87
2018-12-02T02:25:25.065Z,1002.85
2018-12-02T02:26:24.973Z,1002.85
2018-12-02T02:27:24.974Z,1002.85
2018-12-02T02:28:25.053Z,1002.85
2018-12-02T02:29:25.993Z,1002.84
2018-12-02T02:30:25.544Z,1002.83
2018-12-02T02:31:24.914Z,1002.82
2018-12-02T02:32:24.944Z,1002.91
2018-12-02T02:33:24.930Z,1002.84
2018-12-02T02:34:24.932Z,1002.83
2018-12-02T02:35:25.223Z,1002.78
2018-12-02T02:36:24.951Z,1002.74
2018-12-02T02:37:33.630Z,1002.72
2018-12-02T02:39:47.619Z,1002.79
2018-12-02T02:40:47.875Z,1002.76
2018-12-02T02:41:47.711Z,1002.69
2018-12-02T02:45:15.784Z,1002.64
2018-12-02T02:46:25.331Z,1002.52
2018-12-02T02:47:15.753Z,1002.49
2018-12-02T02:48:15.815Z,1002.44
2018-12-02T02:49:15.691Z,1002.35
2018-12-02T02:50:16.545Z,1002.31
2018-12-02T02:51:15.632Z,1002.30
2018-12-02T02:52:15.547Z,1002.31
2018-12-02T02:53:15.542Z,1002.27
2018-12-02T02:54:15.537Z,1002.21
2018-12-02T02:55:15.528Z,1002.15
2018-12-02T02:56:15.531Z,1002.23
2018-12-02T02:57:15.559Z,1002.16
2018-12-02T02:58:15.556Z,1002.17
2018-12-02T02:59:15.486Z,1002.22
2018-12-02T03:00:15.477Z,1002.18
2018-12-02T03:01:15.476Z,1002.16
2018-12-02T03:02:15.414Z,1002.11
2018-12-02T03:03:15.453Z,1002.09
2018-12-02T03:04:15.421Z,1002.18
2018-12-02T03:05:15.399Z,1002.19
2018-12-02T03:06:15.412Z,1002.16
2018-12-02T03:07:15.397Z,1002.06
2018-12-02T03:08:16.063Z,1002.18
2018-12-02T03:09:15.361Z,1002.13
2018-12-02T03:10:15.362Z,1002.05
2018-12-02T03:11:15.399Z,1002.16
2018-12-02T03:12:15.334Z,1002.14
2018-12-02T03:13:15.356Z,1002.14
2018-12-02T03:14:15.995Z,1002.16
2018-12-02T03:15:15.274Z,1002.14
2018-12-02T03:16:15.591Z,1002.11
2018-12-02T03:17:15.274Z,1002.09
2018-12-02T03:18:15.280Z,1002.09
2018-12-02T03:19:15.305Z,1002.11
2018-12-02T03:20:16.017Z,1002.12
2018-12-02T03:21:16.313Z,1002.05
2018-12-02T03:22:16.218Z,1002.11
2018-12-02T03:23:15.245Z,1002.08
2018-12-02T03:24:15.214Z,1002.12
2018-12-02T03:25:15.283Z,1002.05
2018-12-02T03:26:15.298Z,1002.06
2018-12-02T03:27:15.202Z,1002.04
2018-12-02T03:28:16.030Z,1001.99
2018-12-02T03:29:15.203Z,1001.95
2018-12-02T03:30:15.208Z,1001.99
2018-12-02T03:31:15.188Z,1002.02
2018-12-02T03:32:15.122Z,1002.02
2018-12-02T03:33:15.133Z,1002.03
2018-12-02T03:34:15.113Z,1001.96
2018-12-02T03:35:15.093Z,1001.96
2018-12-02T03:36:15.153Z,1001.97
2018-12-02T03:38:29.188Z,1001.88
2018-12-02T03:39:38.198Z,1002.01
2018-12-02T03:40:29.383Z,1001.84
2018-12-02T03:41:29.104Z,1001.91
2018-12-02T03:42:29.057Z,1001.83
2018-12-02T03:43:29.092Z,1001.84
2018-12-02T03:44:29.074Z,1001.76
2018-12-02T03:45:29.019Z,1001.76
2018-12-02T03:46:29.070Z,1001.67
2018-12-02T03:47:28.941Z,1001.68
2018-12-02T03:48:29.045Z,1001.67
2018-12-02T03:49:28.936Z,1001.67
2018-12-02T03:50:28.981Z,1001.62
2018-12-02T03:51:29.471Z,1001.58
2018-12-02T03:52:30.908Z,1001.55
2018-12-02T03:53:29.860Z,1001.59
2018-12-02T03:54:29.119Z,1001.62
2018-12-02T04:00:16.820Z,1001.48
2018-12-02T04:02:34.523Z,1001.43
2018-12-02T04:04:55.226Z,1001.45
2018-12-02T04:05:55.586Z,1001.44
2018-12-02T04:06:55.179Z,1001.44
2018-12-02T04:07:56.038Z,1001.34
2018-12-02T04:08:55.223Z,1001.41
2018-12-02T04:09:56.149Z,1001.34
2018-12-02T04:10:55.051Z,1001.43
2018-12-02T04:11:55.013Z,1001.41
2018-12-02T04:12:54.929Z,1001.40
2018-12-02T04:13:54.916Z,1001.43
2018-12-02T04:14:56.020Z,1001.37
2018-12-02T04:15:54.962Z,1001.32
2018-12-02T04:16:55.859Z,1001.30
2018-12-02T04:17:59.415Z,1001.33
2018-12-02T04:18:59.349Z,1001.23
2018-12-02T04:19:54.936Z,1001.20
2018-12-02T04:20:54.856Z,1001.22
2018-12-02T04:21:55.405Z,1001.18
2018-12-02T04:22:54.787Z,1001.16
2018-12-02T04:25:06.695Z,1001.10
2018-12-02T04:26:06.757Z,1001.20
2018-12-02T04:27:07.421Z,1001.16
2018-12-02T04:28:06.513Z,1001.17
2018-12-02T04:29:06.422Z,1001.11
2018-12-02T04:30:06.445Z,1001.04
2018-12-02T04:31:06.336Z,1001.09
2018-12-02T04:32:13.924Z,1001.18
2018-12-02T04:33:06.802Z,1001.10
2018-12-02T04:34:06.503Z,1001.00
2018-12-02T04:35:06.536Z,1001.04
2018-12-02T04:36:06.588Z,1000.98
2018-12-02T04:37:06.386Z,1000.96
2018-12-02T04:38:06.832Z,1000.83
2018-12-02T04:39:06.251Z,1000.77
2018-12-02T04:40:06.230Z,1000.76
2018-12-02T04:41:06.244Z,1000.65
2018-12-02T04:42:06.254Z,1000.63
2018-12-02T04:43:06.271Z,1000.60
2018-12-02T04:44:06.227Z,1000.63
2018-12-02T04:45:06.340Z,1000.59
2018-12-02T04:46:06.180Z,1000.55
2018-12-02T04:47:06.207Z,1000.55
2018-12-02T04:48:06.184Z,1000.61
2018-12-02T04:49:06.742Z,1000.42
2018-12-02T04:50:06.153Z,1000.49
2018-12-02T04:51:06.118Z,1000.40
2018-12-02T04:52:06.111Z,1000.56
2018-12-02T04:53:06.096Z,1000.52
2018-12-02T04:54:06.054Z,1000.40
2018-12-02T04:55:06.756Z,1000.43
2018-12-02T04:56:06.054Z,1000.42
2018-12-02T04:57:06.075Z,1000.38
2018-12-02T04:58:06.066Z,1000.32
2018-12-02T04:59:06.109Z,1000.30
2018-12-02T05:00:14.043Z,1000.33
2018-12-02T05:01:14.039Z,1000.15
2018-12-02T05:02:06.894Z,1000.27
2018-12-02T05:03:14.001Z,1000.29
2018-12-02T05:04:13.867Z,1000.16
2018-12-02T05:05:06.079Z,1000.19
2018-12-02T05:06:05.994Z,1000.24
2018-12-02T05:07:05.958Z,1000.15
2018-12-02T05:08:06.092Z,1000.10
2018-12-02T05:09:05.935Z,1000.17
2018-12-02T05:10:14.889Z,1000.19
2018-12-02T05:11:13.991Z,1000.17
2018-12-02T05:12:06.270Z,1000.15
2018-12-02T05:13:14.044Z,1000.15
2018-12-02T05:14:14.978Z,1000.14
2018-12-02T05:15:14.589Z,1000.11
2018-12-02T05:16:14.596Z,1000.08
2018-12-02T05:18:18.252Z,1000.06
2018-12-02T05:19:18.599Z,1000.07
2018-12-02T05:20:18.076Z,1000.21
2018-12-02T05:21:17.993Z,1000.08
2018-12-02T05:22:18.267Z,1000.13
2018-12-02T05:23:18.029Z,1000.13
2018-12-02T05:24:17.981Z,1000.14
2018-12-02T05:25:18.613Z,1000.10
2018-12-02T05:26:17.940Z,1000.11
2018-12-02T05:27:17.994Z,1000.10
2018-12-02T05:28:18.002Z,1000.08
2018-12-02T05:29:17.914Z,1000.09
2018-12-02T05:30:17.964Z,1000.14
2018-12-02T05:31:17.915Z,1000.23
2018-12-02T05:32:18.038Z,1000.21
2018-12-02T05:33:17.881Z,1000.12
2018-12-02T05:34:17.887Z,1000.06
2018-12-02T05:35:25.062Z,1000.10
2018-12-02T05:36:18.005Z,1000.06
2018-12-02T05:37:18.077Z,1000.09
2018-12-02T05:38:17.864Z,1000.08
2018-12-02T05:39:17.882Z,1000.09
2018-12-02T05:40:17.995Z,1000.11
2018-12-02T05:41:17.780Z,1000.10
2018-12-02T05:42:17.822Z,1000.05
2018-12-02T05:43:17.816Z,1000.00
2018-12-02T05:44:17.757Z,1000.02
2018-12-02T05:45:17.752Z,1000.02
2018-12-02T05:46:17.764Z,999.92
2018-12-02T05:47:17.807Z,999.95
2018-12-02T05:48:17.747Z,999.90
2018-12-02T05:49:17.738Z,1000.00
2018-12-02T05:50:17.699Z,999.90
2018-12-02T05:51:18.333Z,999.95
2018-12-02T05:52:25.012Z,999.92
2018-12-02T05:53:24.812Z,999.87
2018-12-02T05:54:25.633Z,999.82
2018-12-02T05:55:26.104Z,999.78
2018-12-02T05:57:31.671Z,999.73
2018-12-02T05:58:38.255Z,999.74
2018-12-02T06:00:48.711Z,999.80
2018-12-02T06:03:04.807Z,999.67
2018-12-02T06:04:03.848Z,999.69
2018-12-02T06:05:03.839Z,999.62
2018-12-02T06:06:03.771Z,999.62
2018-12-02T06:07:03.813Z,999.63
2018-12-02T06:09:15.016Z,999.62
2018-12-02T06:10:14.954Z,999.49
2018-12-02T06:11:15.035Z,999.60
2018-12-02T06:12:14.877Z,999.53
2018-12-02T06:13:15.031Z,999.54
2018-12-02T06:14:14.861Z,999.54
2018-12-02T06:15:14.859Z,999.59
2018-12-02T06:16:14.899Z,999.50
2018-12-02T06:17:14.855Z,999.44
2018-12-02T06:18:14.811Z,999.50
2018-12-02T06:19:14.817Z,999.51
2018-12-02T06:20:15.746Z,999.38
2018-12-02T06:21:14.810Z,999.49
2018-12-02T06:22:14.798Z,999.56
2018-12-02T06:23:14.999Z,999.53
2018-12-02T06:24:14.779Z,999.56
2018-12-02T06:25:14.745Z,999.63
2018-12-02T06:26:14.758Z,999.61
2018-12-02T06:27:14.735Z,999.70
2018-12-02T06:28:14.745Z,999.68
2018-12-02T06:29:14.753Z,999.71
2018-12-02T06:30:14.707Z,999.70
2018-12-02T06:31:14.665Z,999.73
2018-12-02T06:32:14.656Z,999.75
2018-12-02T06:33:14.669Z,999.76
2018-12-02T06:34:15.268Z,999.82
2018-12-02T06:35:14.669Z,999.80
2018-12-02T06:36:14.632Z,999.76
2018-12-02T06:37:14.596Z,999.82
2018-12-02T06:38:14.633Z,999.80
2018-12-02T06:39:14.602Z,999.78
2018-12-02T06:40:14.593Z,999.68
2018-12-02T06:41:14.607Z,999.71
2018-12-02T06:42:14.567Z,999.65
2018-12-02T06:43:14.585Z,999.64
2018-12-02T06:44:14.591Z,999.64
2018-12-02T06:45:14.553Z,999.52
2018-12-02T06:46:14.545Z,999.51
2018-12-02T06:47:14.536Z,999.51
2018-12-02T06:48:14.557Z,999.57
2018-12-02T06:49:14.478Z,999.43
2018-12-02T06:50:14.481Z,999.44
2018-12-02T06:51:14.503Z,999.51
2018-12-02T06:52:23.084Z,999.59
2018-12-02T06:53:14.744Z,999.57
2018-12-02T06:54:14.474Z,999.55
2018-12-02T06:55:14.497Z,999.61
2018-12-02T06:56:14.434Z,999.57
2018-12-02T06:57:14.452Z,999.58
2018-12-02T06:58:14.450Z,999.58
2018-12-02T06:59:14.412Z,999.61
2018-12-02T07:00:14.409Z,999.61
2018-12-02T07:01:14.364Z,999.63
2018-12-02T07:02:14.375Z,999.52
2018-12-02T07:03:14.374Z,999.52
2018-12-02T07:04:14.358Z,999.49
2018-12-02T07:05:14.343Z,999.36
2018-12-02T07:06:14.358Z,999.37
2018-12-02T07:07:14.322Z,999.41
2018-12-02T07:08:15.276Z,999.36
2018-12-02T07:09:14.328Z,999.36
2018-12-02T07:10:14.283Z,999.31
2018-12-02T07:11:14.247Z,999.34
2018-12-02T07:12:14.245Z,999.30
2018-12-02T07:13:14.286Z,999.33
2018-12-02T07:14:14.234Z,999.25
2018-12-02T07:15:14.217Z,999.20
2018-12-02T07:16:14.206Z,999.16
2018-12-02T07:17:14.184Z,999.20
2018-12-02T07:18:14.194Z,999.22
2018-12-02T07:19:14.169Z,999.13
2018-12-02T07:20:14.204Z,999.07
2018-12-02T07:21:14.149Z,999.18
2018-12-02T07:22:14.142Z,999.18
2018-12-02T07:23:14.168Z,999.19
2018-12-02T07:24:14.133Z,999.22
2018-12-02T07:25:14.110Z,999.23
2018-12-02T07:26:14.086Z,999.16
2018-12-02T07:27:14.098Z,999.07
2018-12-02T07:28:14.123Z,999.06
2018-12-02T07:29:14.064Z,999.08
2018-12-02T07:30:14.093Z,999.14
2018-12-02T07:31:14.045Z,998.94
2018-12-02T07:32:14.022Z,998.98
2018-12-02T07:33:14.021Z,999.02
2018-12-02T07:34:14.014Z,998.98
2018-12-02T07:35:14.008Z,998.88
2018-12-02T07:36:13.987Z,998.75
2018-12-02T07:37:14.055Z,998.82
2018-12-02T07:38:14.019Z,998.78
2018-12-02T07:39:13.967Z,998.73
2018-12-02T07:40:13.934Z,998.72
2018-12-02T07:41:13.937Z,998.79
2018-12-02T07:42:13.948Z,998.82
2018-12-02T07:43:13.967Z,998.70
2018-12-02T07:44:22.088Z,998.70
2018-12-02T07:45:14.023Z,998.65
2018-12-02T07:46:13.870Z,998.67
2018-12-02T07:47:13.889Z,998.74
2018-12-02T07:48:13.890Z,998.78
2018-12-02T07:49:13.852Z,998.71
2018-12-02T07:50:13.850Z,998.58
2018-12-02T07:51:13.849Z,998.52
2018-12-02T07:52:13.849Z,998.50
2018-12-02T07:53:13.827Z,998.55
2018-12-02T07:54:13.820Z,998.48
2018-12-02T07:55:13.787Z,998.47
2018-12-02T07:56:13.773Z,998.49
2018-12-02T07:57:13.747Z,998.47
2018-12-02T07:58:13.762Z,998.52
2018-12-02T07:59:13.730Z,998.55
2018-12-02T08:00:13.719Z,998.52
2018-12-02T08:01:13.738Z,998.49
2018-12-02T08:02:13.766Z,998.43
2018-12-02T08:03:13.733Z,998.42
2018-12-02T08:04:13.743Z,998.47
2018-12-02T08:05:13.670Z,998.48
2018-12-02T08:06:13.668Z,998.40
2018-12-02T08:07:13.661Z,998.42
2018-12-02T08:08:13.660Z,998.45
2018-12-02T08:09:13.656Z,998.39
2018-12-02T08:10:13.659Z,998.36
2018-12-02T08:11:13.611Z,998.30
2018-12-02T08:12:13.627Z,998.42
2018-12-02T08:13:13.622Z,998.32
2018-12-02T08:14:20.815Z,998.29
2018-12-02T08:15:21.697Z,998.33
2018-12-02T08:16:13.604Z,998.26
2018-12-02T08:17:13.555Z,998.28
2018-12-02T08:18:13.554Z,998.25
2018-12-02T08:19:13.530Z,998.19
2018-12-02T08:20:13.502Z,998.21
2018-12-02T08:21:13.487Z,998.21
2018-12-02T08:22:13.552Z,998.20
2018-12-02T08:23:13.524Z,998.26
2018-12-02T08:24:13.484Z,998.26
2018-12-02T08:25:13.458Z,998.30
2018-12-02T08:26:21.500Z,998.24
2018-12-02T08:27:20.479Z,998.22
2018-12-02T08:28:22.086Z,998.25
2018-12-02T08:29:22.521Z,998.13
2018-12-02T08:30:21.457Z,998.14
2018-12-02T08:31:21.579Z,998.11
2018-12-02T08:32:20.471Z,998.13
2018-12-02T08:33:21.396Z,998.15
2018-12-02T08:34:13.529Z,998.20
2018-12-02T08:35:13.366Z,998.08
2018-12-02T08:36:13.361Z,998.18
2018-12-02T08:37:13.324Z,998.09
2018-12-02T08:38:13.341Z,998.10
2018-12-02T08:39:13.396Z,998.12
2018-12-02T08:40:13.355Z,998.09
2018-12-02T08:41:13.327Z,998.14
2018-12-02T08:42:13.315Z,998.05
2018-12-02T08:43:13.325Z,998.05
2018-12-02T08:44:13.281Z,997.94
2018-12-02T08:45:13.245Z,998.02
2018-12-02T08:46:13.456Z,997.96
2018-12-02T08:47:13.289Z,997.99
2018-12-02T08:48:13.225Z,998.01
2018-12-02T08:49:13.267Z,997.96
2018-12-02T08:50:13.180Z,998.05
2018-12-02T08:51:13.189Z,998.05
2018-12-02T08:52:13.183Z,997.99
2018-12-02T08:53:13.198Z,997.88
2018-12-02T08:54:13.181Z,998.00
2018-12-02T08:55:13.480Z,998.04
2018-12-02T08:56:14.353Z,997.98
2018-12-02T08:57:13.177Z,997.99
2018-12-02T08:58:14.014Z,998.01
2018-12-02T08:59:13.525Z,997.99
2018-12-02T09:00:13.118Z,997.93
2018-12-02T09:01:13.099Z,997.95
2018-12-02T09:02:13.173Z,997.85
2018-12-02T09:03:13.055Z,997.86
2018-12-02T09:04:13.100Z,997.78
2018-12-02T09:05:13.039Z,997.81
2018-12-02T09:06:13.012Z,997.91
2018-12-02T09:07:13.152Z,997.80
2018-12-02T09:08:13.087Z,997.78
2018-12-02T09:09:13.004Z,997.82
2018-12-02T09:10:12.988Z,997.73
2018-12-02T09:11:12.963Z,997.79
2018-12-02T09:12:12.983Z,997.75
2018-12-02T09:13:13.089Z,997.71
2018-12-02T09:14:13.265Z,997.81
2018-12-02T09:15:12.927Z,997.63
2018-12-02T09:16:12.926Z,997.74
2018-12-02T09:17:12.938Z,997.70
2018-12-02T09:18:12.918Z,997.73
2018-12-02T09:19:12.915Z,997.70
2018-12-02T09:20:12.875Z,997.69
2018-12-02T09:21:13.548Z,997.70
2018-12-02T09:22:12.892Z,997.64
2018-12-02T09:23:13.191Z,997.57
2018-12-02T09:24:12.879Z,997.58
2018-12-02T09:25:12.814Z,997.65
2018-12-02T09:26:12.810Z,997.56
2018-12-02T09:27:14.569Z,997.60
2018-12-02T09:28:12.798Z,997.62
2018-12-02T09:29:12.810Z,997.53
2018-12-02T09:30:12.872Z,997.57
2018-12-02T09:31:20.677Z,997.53
2018-12-02T09:32:12.821Z,997.46
2018-12-02T09:33:12.959Z,997.52
2018-12-02T09:34:12.821Z,997.48
2018-12-02T09:35:12.729Z,997.48
2018-12-02T09:36:12.709Z,997.37
2018-12-02T09:37:12.691Z,997.48
2018-12-02T09:38:12.715Z,997.51
2018-12-02T09:39:18.252Z,997.40
2018-12-02T09:40:13.681Z,997.41
2018-12-02T09:41:12.693Z,997.39
2018-12-02T09:42:12.655Z,997.36
2018-12-02T09:43:12.672Z,997.36
2018-12-02T09:44:12.634Z,997.31
2018-12-02T09:45:20.525Z,997.29
2018-12-02T09:46:12.725Z,997.27
2018-12-02T09:47:12.805Z,997.26
2018-12-02T09:48:21.517Z,997.19
2018-12-02T09:49:12.588Z,997.18
2018-12-02T09:50:12.570Z,997.16
2018-12-02T09:51:21.616Z,997.09
2018-12-02T09:52:12.808Z,997.13
2018-12-02T09:54:30.349Z,997.14
2018-12-02T09:55:42.797Z,997.07
2018-12-02T09:58:14.630Z,997.05
2018-12-02T10:00:47.484Z,996.97
2018-12-02T10:01:56.237Z,996.93
2018-12-02T10:02:47.189Z,996.93
2018-12-02T10:03:57.240Z,996.93
2018-12-02T10:06:07.764Z,996.94
2018-12-02T10:08:25.530Z,996.89
2018-12-02T10:09:26.149Z,996.93
2018-12-02T10:10:25.346Z,996.90
2018-12-02T10:11:26.201Z,996.87
2018-12-02T10:12:26.264Z,996.85
2018-12-02T10:13:25.394Z,996.84
2018-12-02T10:14:25.359Z,996.82
2018-12-02T10:15:27.441Z,996.89
2018-12-02T10:16:26.226Z,996.77
2018-12-02T10:17:25.326Z,996.79
2018-12-02T10:18:27.221Z,996.83
2018-12-02T10:19:25.335Z,996.78
2018-12-02T10:20:25.297Z,996.74
2018-12-02T10:21:25.368Z,996.75
2018-12-02T10:22:25.378Z,996.67
2018-12-02T10:23:25.225Z,996.66
2018-12-02T10:24:25.266Z,996.68
2018-12-02T10:25:25.377Z,996.67
2018-12-02T10:26:25.188Z,996.66
2018-12-02T10:27:25.204Z,996.58
2018-12-02T10:28:32.437Z,996.58
2018-12-02T10:30:42.773Z,996.60
2018-12-02T10:31:42.712Z,996.60
2018-12-02T10:32:43.209Z,996.57
2018-12-02T10:33:43.484Z,996.51
2018-12-02T10:34:43.520Z,996.52
2018-12-02T10:35:43.236Z,996.49
2018-12-02T10:36:42.679Z,996.42
2018-12-02T10:37:42.819Z,996.44
2018-12-02T10:38:42.671Z,996.48
2018-12-02T10:39:42.752Z,996.44
2018-12-02T10:40:42.693Z,996.44
2018-12-02T10:41:42.612Z,996.42
2018-12-02T10:42:42.650Z,996.37
2018-12-02T10:43:42.561Z,996.31
2018-12-02T10:44:42.597Z,996.28
2018-12-02T10:45:42.587Z,996.37
2018-12-02T10:46:44.031Z,996.22
2018-12-02T10:47:42.584Z,996.31
2018-12-02T10:48:42.601Z,996.26
2018-12-02T10:49:42.568Z,996.24
2018-12-02T10:50:42.676Z,996.22
2018-12-02T10:51:42.513Z,996.20
2018-12-02T10:52:42.514Z,996.09
2018-12-02T10:53:42.497Z,996.15
2018-12-02T10:54:42.529Z,996.33
2018-12-02T10:55:42.484Z,996.12
2018-12-02T10:56:42.503Z,996.17
2018-12-02T10:57:43.210Z,996.17
2018-12-02T10:58:42.462Z,996.14
2018-12-02T10:59:42.472Z,996.09
2018-12-02T11:00:42.411Z,996.04
2018-12-02T11:01:42.539Z,996.09
2018-12-02T11:02:42.440Z,996.06
2018-12-02T11:03:42.405Z,996.16
2018-12-02T11:04:42.466Z,996.08
2018-12-02T11:05:43.112Z,996.00
2018-12-02T11:06:42.464Z,996.01
2018-12-02T11:07:42.319Z,995.97
2018-12-02T11:08:42.359Z,995.92
2018-12-02T11:09:42.351Z,995.95
2018-12-02T11:10:42.288Z,995.90
2018-12-02T11:11:42.427Z,995.93
2018-12-02T11:12:42.293Z,996.10
2018-12-02T11:13:42.281Z,995.98
2018-12-02T11:14:42.289Z,995.86
2018-12-02T11:15:42.216Z,995.85
2018-12-02T11:16:42.328Z,995.88
2018-12-02T11:17:42.227Z,995.84
2018-12-02T11:18:42.175Z,995.81
2018-12-02T11:19:42.230Z,995.80
2018-12-02T11:20:42.206Z,995.82
2018-12-02T11:24:21.933Z,995.78
2018-12-02T11:25:29.389Z,995.72
2018-12-02T11:26:30.729Z,995.66
2018-12-02T11:27:38.200Z,995.84
2018-12-02T11:28:29.705Z,995.70
2018-12-02T11:29:28.944Z,995.76
2018-12-02T11:30:29.596Z,995.59
2018-12-02T11:31:29.129Z,995.57
2018-12-02T11:32:32.764Z,995.65
2018-12-02T11:33:21.903Z,995.57
2018-12-02T11:34:22.679Z,995.67
2018-12-02T11:35:21.986Z,995.58
2018-12-02T11:36:21.925Z,995.61
2018-12-02T11:37:22.885Z,995.64
2018-12-02T11:38:22.779Z,995.55
2018-12-02T11:39:21.847Z,995.53
2018-12-02T11:40:21.961Z,995.53
2018-12-02T11:41:21.815Z,995.52
2018-12-02T11:42:22.185Z,995.58
2018-12-02T11:43:21.743Z,995.52
2018-12-02T11:44:21.776Z,995.50
2018-12-02T11:45:21.747Z,995.53
2018-12-02T11:46:21.690Z,995.43
2018-12-02T11:47:21.963Z,995.48
2018-12-02T11:48:21.700Z,995.51
2018-12-02T11:49:21.716Z,995.52
2018-12-02T11:50:21.888Z,995.55
2018-12-02T11:51:21.655Z,995.50
2018-12-02T11:52:21.654Z,995.49
2018-12-02T11:53:21.638Z,995.46
2018-12-02T11:54:21.643Z,995.41
2018-12-02T11:55:22.378Z,995.47
2018-12-02T11:56:21.613Z,995.47
2018-12-02T11:57:26.460Z,995.45
2018-12-02T11:58:23.397Z,995.32
2018-12-02T11:59:21.608Z,995.30
2018-12-02T12:00:21.685Z,995.35
2018-12-02T12:01:21.586Z,995.31
2018-12-02T12:02:21.663Z,995.32
2018-12-02T12:03:21.712Z,995.26
2018-12-02T12:04:21.557Z,995.28
2018-12-02T12:05:21.695Z,995.32
2018-12-02T12:06:21.649Z,995.22
2018-12-02T12:07:21.579Z,995.27
2018-12-02T12:08:22.500Z,995.22
2018-12-02T12:09:21.498Z,995.26
2018-12-02T12:10:21.551Z,995.36
2018-12-02T12:11:21.622Z,995.24
2018-12-02T12:12:21.497Z,995.14
2018-12-02T12:13:22.298Z,995.20
2018-12-02T12:14:21.424Z,995.19
2018-12-02T12:15:21.469Z,995.22
2018-12-02T12:16:21.452Z,995.23
2018-12-02T12:17:21.408Z,995.18
2018-12-02T12:18:21.367Z,995.18
2018-12-02T12:19:22.353Z,995.19
2018-12-02T12:20:21.432Z,995.17
2018-12-02T12:21:21.409Z,995.20
2018-12-02T12:22:21.365Z,995.13
2018-12-02T12:23:21.358Z,995.11
2018-12-02T12:24:21.407Z,995.14
2018-12-02T12:25:21.362Z,995.16
2018-12-02T12:26:21.376Z,995.06
2018-12-02T12:27:21.321Z,995.12
2018-12-02T12:28:21.297Z,995.11
2018-12-02T12:29:21.368Z,995.02
2018-12-02T12:30:21.322Z,995.08
2018-12-02T12:31:21.307Z,995.04
2018-12-02T12:32:21.309Z,995.11
2018-12-02T12:33:21.315Z,995.04
2018-12-02T12:34:21.234Z,995.05
2018-12-02T12:35:21.299Z,995.02
2018-12-02T12:36:21.226Z,995.01
2018-12-02T12:37:25.894Z,995.02
2018-12-02T12:38:22.322Z,995.00
2018-12-02T12:39:21.139Z,994.97
2018-12-02T12:40:21.270Z,994.96
2018-12-02T12:41:21.201Z,994.94
2018-12-02T12:42:21.111Z,994.94
2018-12-02T12:43:21.162Z,994.98
2018-12-02T12:44:21.088Z,995.04
2018-12-02T12:45:21.404Z,994.82
2018-12-02T12:46:21.089Z,994.91
2018-12-02T12:47:21.036Z,994.97
2018-12-02T12:48:21.042Z,995.01
2018-12-02T12:49:21.028Z,995.00
2018-12-02T12:50:21.056Z,994.90
2018-12-02T12:51:31.795Z,994.94
2018-12-02T12:52:21.118Z,994.96
2018-12-02T12:53:21.213Z,994.88
2018-12-02T12:54:20.990Z,994.91
2018-12-02T12:55:21.299Z,994.87